createdAt,value
2023-03-02T00:00:03.211Z,17.35
2023-03-02T00:02:30.242Z,15.27
2023-03-02T00:04:59.032Z,14.98
2023-03-02T00:07:33.965Z,13.48
2023-03-02T00:10:01.010Z,15.95
2023-03-02T00:12:31.117Z,14.85
2023-03-02T00:14:57.975Z,17.10
2023-03-02T00:17:27.963Z,18.38
2023-03-02T00:20:10.299Z,16.20
2023-03-02T00:22:42.739Z,16.27
2023-03-02T00:25:10.826Z,15.15
2023-03-02T00:27:37.708Z,20.20
2023-03-02T00:30:05.356Z,15.85
2023-03-02T00:32:32.471Z,14.27
2023-03-02T00:34:59.312Z,15.10
2023-03-02T00:37:26.220Z,17.60
2023-03-02T00:39:53.711Z,15.20
2023-03-02T00:42:21.719Z,13.65
2023-03-02T00:44:48.605Z,16.17
2023-03-02T00:47:15.716Z,14.63
2023-03-02T00:49:42.642Z,13.77
2023-03-02T00:52:09.498Z,14.10
2023-03-02T00:54:36.341Z,14.75
2023-03-02T00:57:03.212Z,15.30
2023-03-02T00:59:30.027Z,15.20
2023-03-02T01:01:59.717Z,15.82
2023-03-02T01:04:31.403Z,13.73
2023-03-02T01:07:00.451Z,15.38
2023-03-02T01:09:27.441Z,15.57
2023-03-02T01:11:54.295Z,15.88
2023-03-02T01:14:21.436Z,21.02
2023-03-02T01:16:48.320Z,18.42
2023-03-02T01:19:15.742Z,17.17
2023-03-02T01:21:43.515Z,13.77
2023-03-02T01:24:11.186Z,16.27
2023-03-02T01:26:38.299Z,17.13
2023-03-02T01:29:05.464Z,14.80
2023-03-02T01:31:32.435Z,16.80
2023-03-02T01:33:59.371Z,17.15
2023-03-02T01:36:26.321Z,17.98
2023-03-02T01:38:54.273Z,15.13
2023-03-02T01:41:21.223Z,14.65
2023-03-02T01:43:48.521Z,16.35
2023-03-02T01:46:35.195Z,14.98
2023-03-02T01:49:06.126Z,16.77
2023-03-02T01:51:38.480Z,20.20
2023-03-02T01:54:17.263Z,15.95
2023-03-02T01:56:46.235Z,16.50
2023-03-02T01:59:16.702Z,16.73
2023-03-02T02:01:47.559Z,16.23
2023-03-02T02:04:14.954Z,17.92
2023-03-02T02:06:48.588Z,18.00
2023-03-02T02:09:19.622Z,20.58
2023-03-02T02:11:47.158Z,14.52
2023-03-02T02:14:14.402Z,18.25
2023-03-02T02:16:41.938Z,16.02
2023-03-02T02:19:35.827Z,17.25
2023-03-02T02:22:03.057Z,20.90
2023-03-02T02:24:46.289Z,16.00
2023-03-02T02:27:14.698Z,16.05
2023-03-02T02:29:47.121Z,14.38
2023-03-02T02:32:18.472Z,18.02
2023-03-02T02:34:58.785Z,15.15
2023-03-02T02:37:35.890Z,15.30
2023-03-02T02:40:09.103Z,17.05
2023-03-02T02:42:43.531Z,15.18
2023-03-02T02:45:27.485Z,16.73
2023-03-02T02:47:56.187Z,15.73
2023-03-02T02:50:31.005Z,17.00
2023-03-02T02:53:23.750Z,16.67
2023-03-02T02:55:53.439Z,16.05
2023-03-02T02:58:39.210Z,17.35
2023-03-02T03:03:36.799Z,18.98
2023-03-02T03:06:08.324Z,16.38
2023-03-02T03:08:43.820Z,15.85
2023-03-02T03:11:16.306Z,16.02
2023-03-02T03:13:44.376Z,19.67
2023-03-02T03:16:15.571Z,18.75
2023-03-02T03:18:49.416Z,17.73
2023-03-02T03:21:18.326Z,18.60
2023-03-02T03:23:45.448Z,16.65
2023-03-02T03:26:12.398Z,16.40
2023-03-02T03:28:39.243Z,19.48
2023-03-02T03:31:06.170Z,15.57
2023-03-02T03:33:33.241Z,17.95
2023-03-02T03:36:00.780Z,18.40
2023-03-02T03:38:27.883Z,17.58
2023-03-02T03:40:54.741Z,17.38
2023-03-02T03:43:21.623Z,17.23
2023-03-02T03:45:48.564Z,19.55
2023-03-02T03:48:15.446Z,19.83
2023-03-02T03:50:42.317Z,16.50
2023-03-02T03:53:09.161Z,18.35
2023-03-02T03:55:36.027Z,16.27
2023-03-02T03:58:02.857Z,18.30
2023-03-02T04:00:30.012Z,17.10
2023-03-02T04:02:57.020Z,17.73
2023-03-02T04:05:24.158Z,15.90
2023-03-02T04:07:51.070Z,20.58
2023-03-02T04:10:18.044Z,19.52
2023-03-02T04:12:45.065Z,19.80
2023-03-02T04:15:15.685Z,19.92
2023-03-02T04:17:45.000Z,23.42
2023-03-02T04:20:16.950Z,19.13
2023-03-02T04:22:45.342Z,22.92
2023-03-02T04:25:14.160Z,25.52
2023-03-02T04:27:41.069Z,26.25
2023-03-02T04:30:08.709Z,25.90
2023-03-02T04:32:35.668Z,28.60
2023-03-02T04:35:02.615Z,31.08
2023-03-02T04:37:29.532Z,26.67
2023-03-02T04:39:56.654Z,33.08
2023-03-02T04:42:23.611Z,35.20
2023-03-02T04:44:50.521Z,34.03
2023-03-02T04:47:17.505Z,37.63
2023-03-02T04:49:44.463Z,36.55
2023-03-02T04:52:11.377Z,42.83
2023-03-02T04:54:38.404Z,40.33
2023-03-02T04:57:05.358Z,41.53
2023-03-02T04:59:32.241Z,48.70
2023-03-02T05:02:00.550Z,45.35
2023-03-02T05:04:29.308Z,45.55
2023-03-02T05:06:56.702Z,47.40
2023-03-02T05:09:27.449Z,52.38
2023-03-02T05:11:59.998Z,48.80
2023-03-02T05:14:27.722Z,51.90
2023-03-02T05:16:55.061Z,47.20
2023-03-02T05:19:21.954Z,57.83
2023-03-02T05:21:48.806Z,52.78
2023-03-02T05:24:15.809Z,53.47
2023-03-02T05:26:43.166Z,57.03
2023-03-02T05:29:10.404Z,56.25
2023-03-02T05:31:41.057Z,57.75
2023-03-02T05:34:11.835Z,62.63
2023-03-02T05:36:39.174Z,60.38
2023-03-02T05:39:06.740Z,62.20
2023-03-02T05:41:33.805Z,62.22
2023-03-02T05:44:02.040Z,58.20
2023-03-02T05:46:29.235Z,65.70
2023-03-02T05:48:56.189Z,62.60
2023-03-02T05:51:23.296Z,62.17
2023-03-02T05:53:50.559Z,66.15
2023-03-02T05:56:17.448Z,76.35
2023-03-02T05:58:44.357Z,70.55
2023-03-02T06:01:14.855Z,73.00
2023-03-02T06:03:43.365Z,71.50
2023-03-02T06:06:14.253Z,68.25
2023-03-02T06:08:43.960Z,69.57
2023-03-02T06:11:11.466Z,69.85
2023-03-02T06:13:39.268Z,74.00
2023-03-02T06:16:06.471Z,69.15
2023-03-02T06:18:33.843Z,70.78
2023-03-02T06:21:00.950Z,73.93
2023-03-02T06:23:28.063Z,72.70
2023-03-02T06:25:55.098Z,72.32
2023-03-02T06:28:22.118Z,81.60
2023-03-02T06:30:49.958Z,76.38
2023-03-02T06:33:21.458Z,71.65
2023-03-02T06:35:49.323Z,76.85
2023-03-02T06:38:16.395Z,78.78
2023-03-02T06:40:43.208Z,74.80
2023-03-02T06:43:10.163Z,75.90
2023-03-02T06:45:37.884Z,78.43
2023-03-02T06:48:05.092Z,80.68
2023-03-02T06:50:32.584Z,74.93
2023-03-02T06:52:59.795Z,84.70
2023-03-02T06:55:26.679Z,81.82
2023-03-02T06:57:54.226Z,80.47
2023-03-02T07:00:27.285Z,77.43
2023-03-02T07:02:55.831Z,70.00
2023-03-02T07:05:24.468Z,77.35
2023-03-02T07:07:51.897Z,78.63
2023-03-02T07:10:19.169Z,74.07
2023-03-02T07:12:46.040Z,75.65
2023-03-02T07:15:14.355Z,81.40
2023-03-02T07:17:43.458Z,75.72
2023-03-02T07:20:12.744Z,82.03
2023-03-02T07:22:40.460Z,80.07
2023-03-02T07:25:08.273Z,76.35
2023-03-02T07:27:35.620Z,83.78
2023-03-02T07:30:03.124Z,81.95
2023-03-02T07:32:30.157Z,82.13
2023-03-02T07:34:57.050Z,73.78
2023-03-02T07:37:24.029Z,78.35
2023-03-02T07:39:50.934Z,80.00
2023-03-02T07:42:18.033Z,78.80
2023-03-02T07:44:44.861Z,79.15
2023-03-02T07:47:11.902Z,78.65
2023-03-02T07:49:39.067Z,88.25
2023-03-02T07:52:06.496Z,98.45
2023-03-02T07:54:33.461Z,76.30
2023-03-02T07:57:00.285Z,74.35
2023-03-02T07:59:28.442Z,79.25
2023-03-02T08:01:56.738Z,78.78
2023-03-02T08:04:24.228Z,78.22
2023-03-02T08:06:51.562Z,72.32
2023-03-02T08:09:18.500Z,76.93
2023-03-02T08:11:46.161Z,77.05
2023-03-02T08:14:13.051Z,73.95
2023-03-02T08:16:40.856Z,73.68
2023-03-02T08:19:08.146Z,67.38
2023-03-02T08:21:35.307Z,73.82
2023-03-02T08:24:02.501Z,72.10
2023-03-02T08:26:29.374Z,70.30
2023-03-02T08:28:56.298Z,69.40
2023-03-02T08:31:23.403Z,77.20
2023-03-02T08:33:50.663Z,70.10
2023-03-02T08:36:19.476Z,73.43
2023-03-02T08:38:47.388Z,65.63
2023-03-02T08:41:17.269Z,63.45
2023-03-02T08:43:44.120Z,65.50
2023-03-02T08:46:12.765Z,68.00
2023-03-02T08:48:39.977Z,65.70
2023-03-02T08:51:09.556Z,67.30
2023-03-02T08:53:42.873Z,59.00
2023-03-02T08:56:29.658Z,59.30
2023-03-02T08:59:00.254Z,62.88
2023-03-02T09:01:30.096Z,61.28
2023-03-02T09:03:59.441Z,62.40
2023-03-02T09:06:31.046Z,62.25
2023-03-02T09:08:57.943Z,59.25
2023-03-02T09:11:25.369Z,58.95
2023-03-02T09:13:52.358Z,59.15
2023-03-02T09:16:20.367Z,60.45
2023-03-02T09:18:49.230Z,47.83
2023-03-02T09:21:16.424Z,50.60
2023-03-02T09:23:43.296Z,56.53
2023-03-02T09:26:10.519Z,56.50
2023-03-02T09:28:38.402Z,53.65
2023-03-02T09:31:08.112Z,49.03
2023-03-02T09:33:35.533Z,49.50
2023-03-02T09:36:09.640Z,52.28
2023-03-02T09:38:39.416Z,47.83
2023-03-02T09:41:12.025Z,46.35
2023-03-02T09:44:01.125Z,48.60
2023-03-02T09:46:44.620Z,49.78
2023-03-02T09:49:20.312Z,50.17
2023-03-02T09:52:08.312Z,50.28
2023-03-02T09:54:37.937Z,46.17
2023-03-02T09:57:21.279Z,52.83
2023-03-02T09:59:54.269Z,57.83
2023-03-02T10:02:27.192Z,43.17
2023-03-02T10:04:57.166Z,42.03
2023-03-02T10:07:32.448Z,41.60
2023-03-02T10:10:26.309Z,59.47
2023-03-02T10:13:19.102Z,41.05
2023-03-02T10:16:17.760Z,40.03
2023-03-02T10:18:55.052Z,38.10
2023-03-02T10:21:38.279Z,47.25
2023-03-02T10:24:32.095Z,45.22
2023-03-02T10:27:08.818Z,39.28
2023-03-02T10:30:01.091Z,42.03
2023-03-02T10:32:32.989Z,40.13
2023-03-02T10:35:02.718Z,38.75
2023-03-02T10:37:30.666Z,44.05
2023-03-02T10:39:57.701Z,42.70
2023-03-02T10:42:27.278Z,39.70
2023-03-02T10:45:23.366Z,38.08
2023-03-02T10:48:10.394Z,41.10
2023-03-02T10:50:38.081Z,38.13
2023-03-02T10:53:16.407Z,39.00
2023-03-02T10:55:52.351Z,39.42
2023-03-02T10:58:22.518Z,35.30
2023-03-02T11:01:01.086Z,38.55
2023-03-02T11:03:29.367Z,38.53
2023-03-02T11:05:58.114Z,37.03
2023-03-02T11:08:28.246Z,35.92
2023-03-02T11:10:59.857Z,34.22
2023-03-02T11:13:45.849Z,36.55
2023-03-02T11:16:18.651Z,36.33
2023-03-02T11:19:00.402Z,33.88
2023-03-02T11:21:54.195Z,33.22
2023-03-02T11:24:40.864Z,35.78
2023-03-02T11:27:20.190Z,37.75
2023-03-02T11:30:08.719Z,32.72
2023-03-02T11:32:53.454Z,34.30
2023-03-02T11:35:41.615Z,35.45
2023-03-02T11:38:29.474Z,35.10
2023-03-02T11:41:15.420Z,36.30
2023-03-02T11:46:26.413Z,36.63
2023-03-02T11:48:57.640Z,32.47
2023-03-02T11:51:30.511Z,31.52
2023-03-02T11:54:02.908Z,31.95
2023-03-02T11:56:32.373Z,33.08
2023-03-02T11:59:07.344Z,34.45
2023-03-02T12:01:36.280Z,32.50
2023-03-02T12:04:23.491Z,33.80
2023-03-02T12:06:50.335Z,32.95
2023-03-02T12:09:23.312Z,35.40
2023-03-02T12:12:17.104Z,32.22
2023-03-02T12:14:44.059Z,33.92
2023-03-02T12:17:25.663Z,33.88
2023-03-02T12:20:06.633Z,29.38
2023-03-02T12:22:34.504Z,30.67
2023-03-02T12:25:06.982Z,34.17
2023-03-02T12:27:38.642Z,30.52
2023-03-02T12:30:23.441Z,38.38
2023-03-02T12:33:10.666Z,29.05
2023-03-02T12:35:38.957Z,29.60
2023-03-02T12:38:31.155Z,30.52
2023-03-02T12:41:12.962Z,30.05
2023-03-02T12:44:07.364Z,26.50
2023-03-02T12:46:36.746Z,27.20
2023-03-02T12:49:27.934Z,30.48
2023-03-02T12:52:24.033Z,24.75
2023-03-02T12:55:19.561Z,28.33
2023-03-02T12:57:54.062Z,24.85
2023-03-02T13:00:24.385Z,25.90
2023-03-02T13:02:53.953Z,27.25
2023-03-02T13:05:25.566Z,29.27
2023-03-02T13:07:59.734Z,27.58
2023-03-02T13:10:40.552Z,27.90
2023-03-02T13:13:21.847Z,24.08
2023-03-02T13:16:00.743Z,27.95
2023-03-02T13:18:36.409Z,28.10
2023-03-02T13:21:04.631Z,28.52
2023-03-02T13:23:33.568Z,26.60
2023-03-02T13:26:05.582Z,28.40
2023-03-02T13:28:37.785Z,32.95
2023-03-02T13:31:21.004Z,25.60
2023-03-02T13:33:50.516Z,28.02
2023-03-02T13:36:21.638Z,27.02
2023-03-02T13:38:51.276Z,28.52
2023-03-02T13:41:32.351Z,25.60
2023-03-02T13:44:10.971Z,25.70
2023-03-02T13:46:39.844Z,24.63
2023-03-02T13:49:11.835Z,29.05
2023-03-02T13:51:46.809Z,26.30
2023-03-02T13:54:25.541Z,27.05
2023-03-02T13:56:53.908Z,27.92
2023-03-02T13:59:21.818Z,30.80
2023-03-02T14:01:48.963Z,26.95
2023-03-02T14:04:24.212Z,25.88
2023-03-02T14:06:52.132Z,26.25
2023-03-02T14:09:19.064Z,25.05
2023-03-02T14:11:49.953Z,30.63
2023-03-02T14:14:19.888Z,28.45
2023-03-02T14:16:46.929Z,29.27
2023-03-02T14:19:16.342Z,28.60
2023-03-02T14:21:43.479Z,26.52
2023-03-02T14:24:10.709Z,28.38
2023-03-02T14:26:47.440Z,26.25
2023-03-02T14:29:27.298Z,27.30
2023-03-02T14:31:55.176Z,26.52
2023-03-02T14:34:22.367Z,29.13
2023-03-02T14:36:52.914Z,27.80
2023-03-02T14:39:30.151Z,27.77
2023-03-02T14:41:57.268Z,25.92
2023-03-02T14:44:24.373Z,26.08
2023-03-02T14:46:51.687Z,24.38
2023-03-02T14:49:18.988Z,25.10
2023-03-02T14:52:00.878Z,23.60
2023-03-02T14:54:36.095Z,25.55
2023-03-02T14:57:06.260Z,28.27
2023-03-02T14:59:33.180Z,26.92
2023-03-02T15:02:08.223Z,25.50
2023-03-02T15:04:42.655Z,26.95
2023-03-02T15:07:15.941Z,26.45
2023-03-02T15:09:45.939Z,25.73
2023-03-02T15:12:12.932Z,24.17
2023-03-02T15:14:40.161Z,25.23
2023-03-02T15:17:07.322Z,25.83
2023-03-02T15:19:34.219Z,24.58
2023-03-02T15:22:04.225Z,29.25
2023-03-02T15:24:33.261Z,24.02
2023-03-02T15:27:00.749Z,26.63
2023-03-02T15:29:27.626Z,35.60
2023-03-02T15:31:54.741Z,24.35
2023-03-02T15:34:21.613Z,28.65
2023-03-02T15:36:48.514Z,23.10
2023-03-02T15:39:16.788Z,23.90
2023-03-02T15:41:44.367Z,23.52
2023-03-02T15:44:23.013Z,22.80
2023-03-02T15:46:51.813Z,23.98
2023-03-02T15:49:22.826Z,20.42
2023-03-02T15:51:52.031Z,18.83
2023-03-02T15:54:19.297Z,24.65
2023-03-02T15:56:49.609Z,17.48
2023-03-02T15:59:16.617Z,19.77
2023-03-02T16:01:43.638Z,18.55
2023-03-02T16:04:10.484Z,17.45
2023-03-02T16:06:38.705Z,18.55
2023-03-02T16:09:05.508Z,16.90
2023-03-02T16:11:32.370Z,17.38
2023-03-02T16:13:59.431Z,17.67
2023-03-02T16:16:26.480Z,18.80
2023-03-02T16:18:55.019Z,18.17
2023-03-02T16:21:23.114Z,15.90
2023-03-02T16:23:52.568Z,17.77
2023-03-02T16:26:21.626Z,16.55
2023-03-02T16:28:48.925Z,26.27
2023-03-02T16:31:18.721Z,15.55
2023-03-02T16:33:46.576Z,18.73
2023-03-02T16:36:14.743Z,15.90
2023-03-02T16:38:42.418Z,17.88
2023-03-02T16:41:19.087Z,16.98
2023-03-02T16:43:48.690Z,23.48
2023-03-02T16:46:16.942Z,18.65
2023-03-02T16:48:44.923Z,15.93
2023-03-02T16:51:12.349Z,18.48
2023-03-02T16:53:40.841Z,21.42
2023-03-02T16:56:08.511Z,17.77
2023-03-02T16:58:38.271Z,19.63
2023-03-02T17:01:06.762Z,18.92
2023-03-02T17:03:34.856Z,17.35
2023-03-02T17:06:01.938Z,17.45
2023-03-02T17:08:28.962Z,19.92
2023-03-02T17:10:55.854Z,19.75
2023-03-02T17:13:22.811Z,17.38
2023-03-02T17:15:49.707Z,17.58
2023-03-02T17:18:17.321Z,22.48
2023-03-02T17:20:44.202Z,19.20
2023-03-02T17:23:14.237Z,20.55
2023-03-02T17:25:41.132Z,19.10
2023-03-02T17:28:08.095Z,17.52
2023-03-02T17:30:34.982Z,16.85
2023-03-02T17:33:01.796Z,16.95
2023-03-02T17:35:28.620Z,15.82
2023-03-02T17:37:55.536Z,19.23
2023-03-02T17:40:22.937Z,18.38
2023-03-02T17:42:49.850Z,21.48
2023-03-02T17:45:19.973Z,19.48
2023-03-02T17:47:48.496Z,28.25
2023-03-02T17:50:15.618Z,26.88
2023-03-02T17:52:43.209Z,25.77
2023-03-02T17:55:11.184Z,22.58
2023-03-02T17:57:38.495Z,20.92
2023-03-02T18:00:08.206Z,24.45
2023-03-02T18:02:35.253Z,22.10
2023-03-02T18:05:02.524Z,22.05
2023-03-02T18:07:29.362Z,21.45
2023-03-02T18:09:56.214Z,26.67
2023-03-02T18:12:23.066Z,26.08
2023-03-02T18:14:49.896Z,25.15
2023-03-02T18:17:16.929Z,27.30
2023-03-02T18:19:43.834Z,27.38
2023-03-02T18:22:11.048Z,32.13
2023-03-02T18:24:37.955Z,30.05
2023-03-02T18:27:04.916Z,36.42
2023-03-02T18:29:32.783Z,35.05
2023-03-02T18:32:00.386Z,33.45
2023-03-02T18:34:27.374Z,34.85
2023-03-02T18:36:54.268Z,36.70
2023-03-02T18:39:21.224Z,35.40
2023-03-02T18:41:48.609Z,38.33
2023-03-02T18:44:15.571Z,39.05
2023-03-02T18:46:42.621Z,36.42
2023-03-02T18:49:09.505Z,42.97
2023-03-02T18:51:36.338Z,37.47
2023-03-02T18:54:03.336Z,40.95
2023-03-02T18:56:30.170Z,43.08
2023-03-02T18:58:57.083Z,43.22
2023-03-02T19:01:23.977Z,42.72
2023-03-02T19:03:51.014Z,48.60
2023-03-02T19:06:17.973Z,42.35
2023-03-02T19:08:44.938Z,43.78
2023-03-02T19:11:12.073Z,44.47
2023-03-02T19:13:38.933Z,43.70
2023-03-02T19:16:06.620Z,45.38
2023-03-02T19:18:34.303Z,42.70
2023-03-02T19:21:01.447Z,43.88
2023-03-02T19:23:28.533Z,44.88
2023-03-02T19:25:55.358Z,44.00
2023-03-02T19:28:22.234Z,46.72
2023-03-02T19:30:50.198Z,45.83
2023-03-02T19:33:17.435Z,41.65
2023-03-02T19:35:44.675Z,46.80
2023-03-02T19:38:12.682Z,52.72
2023-03-02T19:40:39.709Z,50.40
2023-03-02T19:43:06.683Z,50.80
2023-03-02T19:45:35.016Z,47.10
2023-03-02T19:48:03.411Z,50.00
2023-03-02T19:50:30.662Z,44.92
2023-03-02T19:52:58.588Z,46.97
2023-03-02T19:55:26.402Z,50.50
2023-03-02T19:57:59.980Z,50.72
2023-03-02T20:00:29.264Z,55.00
2023-03-02T20:02:56.608Z,64.53
2023-03-02T20:05:23.651Z,66.03
2023-03-02T20:07:50.489Z,60.60
2023-03-02T20:10:44.937Z,60.70
2023-03-02T20:13:11.940Z,50.03
2023-03-02T20:15:42.500Z,52.92
2023-03-02T20:18:12.948Z,53.20
2023-03-02T20:20:40.486Z,49.05
2023-03-02T20:23:07.959Z,49.60
2023-03-02T20:25:36.485Z,47.38
2023-03-02T20:28:05.813Z,47.13
2023-03-02T20:30:35.284Z,45.80
2023-03-02T20:33:04.443Z,51.25
2023-03-02T20:35:33.224Z,45.63
2023-03-02T20:38:02.546Z,45.55
2023-03-02T20:40:29.737Z,44.83
2023-03-02T20:42:56.943Z,53.63
2023-03-02T20:45:23.901Z,46.67
2023-03-02T20:47:50.792Z,45.03
2023-03-02T20:50:20.625Z,45.05
2023-03-02T20:52:47.476Z,47.85
2023-03-02T20:55:14.837Z,42.83
2023-03-02T20:57:41.742Z,45.65
2023-03-02T21:00:14.066Z,43.88
2023-03-02T21:02:41.139Z,44.05
2023-03-02T21:05:08.316Z,45.72
2023-03-02T21:07:35.851Z,46.78
2023-03-02T21:10:06.472Z,45.88
2023-03-02T21:12:34.078Z,42.72
2023-03-02T21:15:02.196Z,45.92
2023-03-02T21:17:30.801Z,41.28
2023-03-02T21:19:58.515Z,41.33
2023-03-02T21:22:25.795Z,44.90
2023-03-02T21:24:56.090Z,46.13
2023-03-02T21:27:22.871Z,42.75
2023-03-02T21:29:49.792Z,47.50
2023-03-02T21:32:16.853Z,43.33
2023-03-02T21:34:44.881Z,42.20
2023-03-02T21:37:11.703Z,43.83
2023-03-02T21:39:38.634Z,40.90
2023-03-02T21:42:05.631Z,47.22
2023-03-02T21:44:32.459Z,38.88
2023-03-02T21:46:59.535Z,41.80
2023-03-02T21:49:26.381Z,43.92
2023-03-02T21:51:53.335Z,41.55
2023-03-02T21:54:20.187Z,34.85
2023-03-02T21:56:46.983Z,37.67
2023-03-02T21:59:13.953Z,37.67
2023-03-02T22:01:41.186Z,37.55
2023-03-02T22:04:08.246Z,37.78
2023-03-02T22:06:35.908Z,36.63
2023-03-02T22:09:04.128Z,36.25
2023-03-02T22:11:36.997Z,35.92
2023-03-02T22:14:15.525Z,35.72
2023-03-02T22:16:46.355Z,35.95
2023-03-02T22:19:31.055Z,32.83
2023-03-02T22:22:00.395Z,33.92
2023-03-02T22:24:32.594Z,35.22
2023-03-02T22:27:18.799Z,38.00
2023-03-02T22:29:47.062Z,40.95
2023-03-02T22:32:15.320Z,40.15
2023-03-02T22:34:44.200Z,36.00
2023-03-02T22:37:37.458Z,36.45
2023-03-02T22:40:16.348Z,38.15
2023-03-02T22:42:43.687Z,38.72
2023-03-02T22:45:21.690Z,40.97
2023-03-02T22:47:51.632Z,39.42
2023-03-02T22:50:27.124Z,40.92
2023-03-02T22:52:55.696Z,41.95
2023-03-02T22:55:43.023Z,41.15
2023-03-02T22:58:27.876Z,38.33
2023-03-02T23:00:55.606Z,42.55
2023-03-02T23:03:25.051Z,39.15
2023-03-02T23:05:53.092Z,40.60
2023-03-02T23:08:25.715Z,40.63
2023-03-02T23:10:55.223Z,43.35
2023-03-02T23:13:26.933Z,38.20
2023-03-02T23:15:54.746Z,39.38
2023-03-02T23:18:25.205Z,39.97
2023-03-02T23:20:52.990Z,45.10
2023-03-02T23:23:21.902Z,40.70
2023-03-02T23:25:49.104Z,43.58
2023-03-02T23:28:16.512Z,40.17
2023-03-02T23:30:43.590Z,46.67
2023-03-02T23:33:10.604Z,40.78
2023-03-02T23:35:37.474Z,43.08
2023-03-02T23:38:04.384Z,45.92
2023-03-02T23:40:31.343Z,44.25
2023-03-02T23:42:58.312Z,47.78
2023-03-02T23:45:26.470Z,46.03
2023-03-02T23:47:53.434Z,48.88
2023-03-02T23:50:20.412Z,47.35
2023-03-02T23:52:47.270Z,52.55
2023-03-02T23:55:14.115Z,50.70
2023-03-02T23:57:40.974Z,48.70
